Time,TemperatureF,DewpointF,PressureIn,WindDirection,WindDirectionDegrees,WindSpeedMPH,WindSpeedGustMPH,Humidity,HourlyPrecipIn,Conditions,Clouds,dailyrainin,SoftwareType,DateUTC
2013-01-16 00:03:00,23.4,20.3,30.18,NE,34,0.0,0.0,88,0.00,,,0.00,WUHU216DAVISVP2,2013-01-16 05:03:00,
2013-01-16 00:08:00,23.4,20.6,30.18,NE,34,0.0,2.0,89,0.00,,,0.00,WUHU216DAVISVP2,2013-01-16 05:08:00,
2013-01-16 00:13:00,23.4,20.3,30.18,NE,34,0.0,2.0,88,0.00,,,0.00,WUHU216DAVISVP2,2013-01-16 05:13:00,
2013-01-16 00:18:00,23.4,20.1,30.18,NE,34,0.0,2.0,87,0.00,,,0.00,WUHU216DAVISVP2,2013-01-16 05:18:00,
2013-01-16 00:23:00,23.2,20.2,30.18,NE,34,0.0,2.0,88,0.00,,,0.00,WUHU216DAVISVP2,2013-01-16 05:23:00,
2013-01-16 00:28:00,23.0,20.0,30.18,NE,34,0.0,0.0,88,0.00,,,0.00,WUHU216DAVISVP2,2013-01-16 05:28:00,
2013-01-16 00:33:00,22.8,19.8,30.18,NE,34,0.0,0.0,88,0.00,,,0.00,WUHU216DAVISVP2,2013-01-16 05:33:00,
2013-01-16 00:38:00,22.6,19.8,30.18,NE,34,0.0,0.0,89,0.00,,,0.00,WUHU216DAVISVP2,2013-01-16 05:38:00,
2013-01-16 00:43:00,22.5,19.7,30.18,NE,34,0.0,0.0,89,0.00,,,0.00,WUHU216DAVISVP2,2013-01-16 05:43:00,
2013-01-16 00:48:00,22.4,19.6,30.18,NE,34,0.0,0.0,89,0.00,,,0.00,WUHU216DAVISVP2,2013-01-16 05:48:00,
2013-01-16 00:54:00,22.3,19.8,30.17,NE,34,0.0,0.0,90,0.00,,,0.00,WUHU216DAVISVP2,2013-01-16 05:54:00,
2013-01-16 00:59:00,22.2,19.7,30.16,NE,34,0.0,0.0,90,0.00,,,0.00,WUHU216DAVISVP2,2013-01-16 05:59:00,
2013-01-16 01:04:00,22.2,19.7,30.16,NE,34,0.0,0.0,90,0.00,,,0.00,WUHU216DAVISVP2,2013-01-16 06:04:00,
2013-01-16 01:09:00,22.1,19.6,30.16,NE,34,0.0,1.0,90,0.00,,,0.00,WUHU216DAVISVP2,2013-01-16 06:09:00,
2013-01-16 01:14:00,22.1,19.6,30.15,NE,34,0.0,1.0,90,0.00,,,0.00,WUHU216DAVISVP2,2013-01-16 06:14:00,
2013-01-16 01:19:00,22.0,19.5,30.15,NE,34,0.0,1.0,90,0.00,,,0.00,WUHU216DAVISVP2,2013-01-16 06:19:00,
2013-01-16 01:24:00,22.0,19.5,30.15,NE,34,0.0,1.0,90,0.00,,,0.00,WUHU216DAVISVP2,2013-01-16 06:24:00,
2013-01-16 01:29:00,22.1,19.6,30.15,NE,34,0.0,1.0,90,0.00,,,0.00,WUHU216DAVISVP2,2013-01-16 06:29:00,
2013-01-16 01:34:00,22.0,19.5,30.15,NE,34,0.0,1.0,90,0.00,,,0.00,WUHU216DAVISVP2,2013-01-16 06:34:00,
2013-01-16 01:39:00,21.8,19.3,30.15,NE,34,0.0,1.0,90,0.00,,,0.00,WUHU216DAVISVP2,2013-01-16 06:39:00,
2013-01-16 01:44:00,21.7,19.2,30.14,NE,34,1.0,1.0,90,0.00,,,0.00,WUHU216DAVISVP2,2013-01-16 06:44:00,
2013-01-16 01:49:00,22.0,19.7,30.14,NE,34,1.0,2.0,91,0.00,,,0.00,WUHU216DAVISVP2,2013-01-16 06:49:00,
2013-01-16 01:54:00,22.3,20.0,30.14,NE,34,0.0,2.0,91,0.00,,,0.00,WUHU216DAVISVP2,2013-01-16 06:54:00,
2013-01-16 01:59:00,22.5,20.0,30.13,NE,34,1.0,2.0,90,0.00,,,0.00,WUHU216DAVISVP2,2013-01-16 06:59:00,
2013-01-16 02:04:00,22.4,19.9,30.14,NNE,31,2.0,3.0,90,0.00,,,0.00,WUHU216DAVISVP2,2013-01-16 07:04:00,
2013-01-16 02:09:00,22.2,19.7,30.14,North,360,0.0,3.0,90,0.00,,,0.00,WUHU216DAVISVP2,2013-01-16 07:09:00,
2013-01-16 02:14:00,21.8,19.0,30.14,North,360,0.0,3.0,89,0.00,,,0.00,WUHU216DAVISVP2,2013-01-16 07:14:00,
2013-01-16 02:20:00,21.8,19.5,30.13,North,351,2.0,3.0,91,0.00,,,0.00,WUHU216DAVISVP2,2013-01-16 07:20:00,
2013-01-16 02:25:00,21.9,19.4,30.14,NNW,346,0.0,3.0,90,0.00,,,0.00,WUHU216DAVISVP2,2013-01-16 07:25:00,
2013-01-16 02:30:00,21.9,19.4,30.14,NNW,346,0.0,3.0,90,0.00,,,0.00,WUHU216DAVISVP2,2013-01-16 07:30:00,
2013-01-16 02:34:00,21.9,19.4,30.14,NNW,346,0.0,3.0,90,0.00,,,0.00,WUHU216DAVISVP2,2013-01-16 07:34:00,
2013-01-16 02:49:00,21.7,19.2,30.14,NNW,346,0.0,1.0,90,0.00,,,0.00,WUHU216DAVISVP2,2013-01-16 07:49:00,
2013-01-16 02:53:00,21.7,19.2,30.14,NNW,346,0.0,1.0,90,0.00,,,0.00,WUHU216DAVISVP2,2013-01-16 07:53:00,
2013-01-16 03:12:00,22.0,19.8,30.13,NNW,346,0.0,3.0,91,0.00,,,0.00,WUHU216DAVISVP2,2013-01-16 08:12:00,
2013-01-16 03:19:00,21.9,19.6,30.14,NNW,346,2.0,3.0,91,0.00,,,0.00,WUHU216DAVISVP2,2013-01-16 08:19:00,
2013-01-16 03:24:00,21.8,19.5,30.13,NNW,346,0.0,3.0,91,0.00,,,0.00,WUHU216DAVISVP2,2013-01-16 08:24:00,
2013-01-16 03:29:00,21.7,19.4,30.12,NNW,346,0.0,3.0,91,0.00,,,0.00,WUHU216DAVISVP2,2013-01-16 08:29:00,
2013-01-16 03:34:00,21.7,19.4,30.12,NNW,346,1.0,3.0,91,0.00,,,0.00,WUHU216DAVISVP2,2013-01-16 08:34:00,
2013-01-16 03:40:00,21.9,19.6,30.11,NNW,346,0.0,2.0,91,0.00,,,0.00,WUHU216DAVISVP2,2013-01-16 08:40:00,
2013-01-16 03:45:00,22.0,19.7,30.11,NNW,346,0.0,2.0,91,0.00,,,0.00,WUHU216DAVISVP2,2013-01-16 08:45:00,
2013-01-16 03:50:00,22.0,19.7,30.11,NNW,346,0.0,2.0,91,0.00,,,0.00,WUHU216DAVISVP2,2013-01-16 08:50:00,
2013-01-16 03:55:00,22.0,19.7,30.11,NNW,346,2.0,2.0,91,0.00,,,0.00,WUHU216DAVISVP2,2013-01-16 08:55:00,
2013-01-16 04:00:00,21.9,19.6,30.11,NNW,346,0.0,2.0,91,0.00,,,0.00,WUHU216DAVISVP2,2013-01-16 09:00:00,
2013-01-16 04:05:00,21.8,19.5,30.12,NNW,346,0.0,2.0,91,0.00,,,0.00,WUHU216DAVISVP2,2013-01-16 09:05:00,
2013-01-16 04:10:00,21.6,19.3,30.12,NNW,346,0.0,2.0,91,0.00,,,0.00,WUHU216DAVISVP2,2013-01-16 09:10:00,
2013-01-16 04:15:00,21.5,19.2,30.12,NNW,346,0.0,2.0,91,0.00,,,0.00,WUHU216DAVISVP2,2013-01-16 09:15:00,
2013-01-16 04:20:00,21.4,19.1,30.13,NNW,346,0.0,0.0,91,0.00,,,0.00,WUHU216DAVISVP2,2013-01-16 09:20:00,
2013-01-16 04:25:00,21.3,19.0,30.12,NNW,346,0.0,0.0,91,0.00,,,0.00,WUHU216DAVISVP2,2013-01-16 09:25:00,
2013-01-16 04:30:00,21.2,18.9,30.11,NNW,346,0.0,0.0,91,0.00,,,0.00,WUHU216DAVISVP2,2013-01-16 09:30:00,
2013-01-16 04:38:00,21.1,19.1,30.11,NNW,346,0.0,0.0,92,0.00,,,0.00,WUHU216DAVISVP2,2013-01-16 09:38:00,
2013-01-16 04:43:00,21.2,19.2,30.10,NNW,346,0.0,0.0,92,0.00,,,0.00,WUHU216DAVISVP2,2013-01-16 09:43:00,
2013-01-16 04:48:00,21.4,19.6,30.09,NNW,346,0.0,0.0,93,0.00,,,0.00,WUHU216DAVISVP2,2013-01-16 09:48:00,
2013-01-16 04:53:00,21.5,19.7,30.09,NNW,346,0.0,0.0,93,0.00,,,0.00,WUHU216DAVISVP2,2013-01-16 09:53:00,
2013-01-16 04:59:00,21.6,19.8,30.08,NNW,346,0.0,0.0,93,0.00,,,0.00,WUHU216DAVISVP2,2013-01-16 09:59:00,
2013-01-16 05:04:00,21.7,19.9,30.08,NNW,346,0.0,0.0,93,0.00,,,0.00,WUHU216DAVISVP2,2013-01-16 10:04:00,
2013-01-16 05:09:00,21.9,20.1,30.08,NNW,346,0.0,0.0,93,0.00,,,0.00,WUHU216DAVISVP2,2013-01-16 10:09:00,
2013-01-16 05:14:00,22.1,20.3,30.08,NNW,346,0.0,0.0,93,0.00,,,0.00,WUHU216DAVISVP2,2013-01-16 10:14:00,
2013-01-16 05:19:00,22.2,20.4,30.07,NNW,346,0.0,1.0,93,0.00,,,0.00,WUHU216DAVISVP2,2013-01-16 10:19:00,
2013-01-16 05:24:00,22.3,20.5,30.07,NNW,346,0.0,1.0,93,0.00,,,0.00,WUHU216DAVISVP2,2013-01-16 10:24:00,
2013-01-16 05:29:00,22.4,20.6,30.08,NNW,346,1.0,2.0,93,0.00,,,0.00,WUHU216DAVISVP2,2013-01-16 10:29:00,
2013-01-16 05:34:00,22.4,20.6,30.07,NNW,346,0.0,2.0,93,0.00,,,0.00,WUHU216DAVISVP2,2013-01-16 10:34:00,
2013-01-16 05:39:00,22.4,20.6,30.07,NNW,346,0.0,2.0,93,0.00,,,0.00,WUHU216DAVISVP2,2013-01-16 10:39:00,
2013-01-16 05:44:00,22.4,20.6,30.07,NNW,346,0.0,2.0,93,0.00,,,0.00,WUHU216DAVISVP2,2013-01-16 10:44:00,
2013-01-16 05:49:00,22.4,20.6,30.07,NNW,346,0.0,1.0,93,0.00,,,0.00,WUHU216DAVISVP2,2013-01-16 10:49:00,
2013-01-16 05:54:00,22.4,20.6,30.07,NNW,346,0.0,0.0,93,0.00,,,0.00,WUHU216DAVISVP2,2013-01-16 10:54:00,
2013-01-16 05:59:00,22.4,20.6,30.06,NNW,346,0.0,0.0,93,0.00,,,0.00,WUHU216DAVISVP2,2013-01-16 10:59:00,
2013-01-16 06:04:00,22.4,20.6,30.06,NNW,346,0.0,0.0,93,0.00,,,0.00,WUHU216DAVISVP2,2013-01-16 11:04:00,
2013-01-16 06:09:00,22.4,20.6,30.06,NNW,346,0.0,0.0,93,0.00,,,0.00,WUHU216DAVISVP2,2013-01-16 11:09:00,
2013-01-16 06:14:00,22.3,20.5,30.06,NNW,346,0.0,0.0,93,0.00,,,0.00,WUHU216DAVISVP2,2013-01-16 11:14:00,
2013-01-16 06:20:00,22.2,20.4,30.06,NNW,346,0.0,0.0,93,0.00,,,0.00,WUHU216DAVISVP2,2013-01-16 11:20:00,
2013-01-16 06:25:00,22.0,20.2,30.06,NNW,346,0.0,0.0,93,0.00,,,0.00,WUHU216DAVISVP2,2013-01-16 11:25:00,
2013-01-16 06:30:00,21.7,19.9,30.06,NNW,346,0.0,0.0,93,0.00,,,0.00,WUHU216DAVISVP2,2013-01-16 11:30:00,
2013-01-16 06:35:00,21.5,19.7,30.06,NNW,346,0.0,0.0,93,0.00,,,0.00,WUHU216DAVISVP2,2013-01-16 11:35:00,
2013-01-16 06:40:00,21.3,19.5,30.06,NNW,346,0.0,0.0,93,0.00,,,0.00,WUHU216DAVISVP2,2013-01-16 11:40:00,
2013-01-16 06:45:00,21.2,19.4,30.06,NNW,346,0.0,0.0,93,0.00,,,0.00,WUHU216DAVISVP2,2013-01-16 11:45:00,
2013-01-16 06:50:00,21.2,19.4,30.06,NNW,346,0.0,0.0,93,0.00,,,0.00,WUHU216DAVISVP2,2013-01-16 11:50:00,
2013-01-16 06:55:00,21.1,19.3,30.05,NNW,346,0.0,0.0,93,0.00,,,0.00,WUHU216DAVISVP2,2013-01-16 11:55:00,
2013-01-16 07:00:00,21.1,19.6,30.06,NNW,346,0.0,0.0,94,0.00,,,0.00,WUHU216DAVISVP2,2013-01-16 12:00:00,
2013-01-16 07:05:00,21.1,19.6,30.05,NNW,346,0.0,0.0,94,0.00,,,0.00,WUHU216DAVISVP2,2013-01-16 12:05:00,
2013-01-16 07:10:00,21.1,19.6,30.05,NNW,346,0.0,0.0,94,0.00,,,0.00,WUHU216DAVISVP2,2013-01-16 12:10:00,
2013-01-16 07:15:00,21.1,19.6,30.04,NNW,346,0.0,0.0,94,0.00,,,0.00,WUHU216DAVISVP2,2013-01-16 12:15:00,
2013-01-16 07:20:00,21.1,19.6,30.04,NNW,346,0.0,0.0,94,0.00,,,0.00,WUHU216DAVISVP2,2013-01-16 12:20:00,
2013-01-16 07:25:00,21.1,19.6,30.04,NNW,346,0.0,0.0,94,0.00,,,0.00,WUHU216DAVISVP2,2013-01-16 12:25:00,
2013-01-16 07:30:00,21.1,19.6,30.04,NNW,346,0.0,0.0,94,0.00,,,0.00,WUHU216DAVISVP2,2013-01-16 12:30:00,
2013-01-16 07:36:00,21.1,19.6,30.04,NNW,346,0.0,0.0,94,0.00,,,0.00,WUHU216DAVISVP2,2013-01-16 12:36:00,
2013-01-16 07:41:00,21.1,19.6,30.04,NNW,346,1.0,1.0,94,0.00,,,0.00,WUHU216DAVISVP2,2013-01-16 12:41:00,
2013-01-16 07:46:00,21.1,19.6,30.03,NNW,346,0.0,1.0,94,0.00,,,0.00,WUHU216DAVISVP2,2013-01-16 12:46:00,
2013-01-16 07:51:00,21.1,19.6,30.03,NNW,346,0.0,1.0,94,0.00,,,0.00,WUHU216DAVISVP2,2013-01-16 12:51:00,
2013-01-16 07:56:00,21.1,19.6,30.04,NNW,346,0.0,1.0,94,0.00,,,0.00,WUHU216DAVISVP2,2013-01-16 12:56:00,
2013-01-16 08:01:00,21.3,20.1,30.04,NNW,346,0.0,2.0,95,0.00,,,0.00,WUHU216DAVISVP2,2013-01-16 13:01:00,
2013-01-16 08:06:00,21.2,19.7,30.04,NNW,346,0.0,2.0,94,0.00,,,0.00,WUHU216DAVISVP2,2013-01-16 13:06:00,
2013-01-16 08:11:00,21.1,19.6,30.04,NNW,346,0.0,2.0,94,0.00,,,0.00,WUHU216DAVISVP2,2013-01-16 13:11:00,
2013-01-16 08:16:00,21.0,19.5,30.04,NNW,346,0.0,2.0,94,0.00,,,0.00,WUHU216DAVISVP2,2013-01-16 13:16:00,
2013-01-16 08:21:00,21.0,19.5,30.04,NNW,346,0.0,2.0,94,0.00,,,0.00,WUHU216DAVISVP2,2013-01-16 13:21:00,
2013-01-16 08:26:00,21.1,19.6,30.03,NNW,346,0.0,2.0,94,0.00,,,0.00,WUHU216DAVISVP2,2013-01-16 13:26:00,
2013-01-16 08:31:00,21.1,19.6,30.03,NNW,346,0.0,2.0,94,0.00,,,0.00,WUHU216DAVISVP2,2013-01-16 13:31:00,
2013-01-16 08:36:00,21.2,19.7,30.03,NNW,346,0.0,2.0,94,0.00,,,0.00,WUHU216DAVISVP2,2013-01-16 13:36:00,
2013-01-16 08:41:00,21.1,19.6,30.03,NNW,346,0.0,1.0,94,0.00,,,0.00,WUHU216DAVISVP2,2013-01-16 13:41:00,
2013-01-16 08:46:00,21.1,19.6,30.03,NNW,346,0.0,2.0,94,0.00,,,0.00,WUHU216DAVISVP2,2013-01-16 13:46:00,
2013-01-16 08:51:00,21.2,19.7,30.03,NNW,346,1.0,2.0,94,0.00,,,0.00,WUHU216DAVISVP2,2013-01-16 13:51:00,
2013-01-16 08:56:00,21.6,20.1,30.02,NNW,346,1.0,2.0,94,0.00,,,0.00,WUHU216DAVISVP2,2013-01-16 13:56:00,
2013-01-16 09:02:00,21.9,20.4,30.03,NNW,338,1.0,4.0,94,0.00,,,0.00,WUHU216DAVISVP2,2013-01-16 14:02:00,
2013-01-16 09:07:00,22.3,20.8,30.03,NNW,334,2.0,4.0,94,0.00,,,0.00,WUHU216DAVISVP2,2013-01-16 14:07:00,
2013-01-16 09:12:00,22.7,21.2,30.03,WSW,242,2.0,6.0,94,0.00,,,0.00,WUHU216DAVISVP2,2013-01-16 14:12:00,
2013-01-16 09:17:00,23.1,21.4,30.04,SSW,211,2.0,6.0,93,0.00,,,0.00,WUHU216DAVISVP2,2013-01-16 14:17:00,
2013-01-16 09:22:00,23.5,21.7,30.04,SSW,210,4.0,6.0,93,0.00,,,0.00,WUHU216DAVISVP2,2013-01-16 14:22:00,
2013-01-16 09:27:00,24.0,22.0,30.04,SSW,197,6.0,6.0,92,0.00,,,0.00,WUHU216DAVISVP2,2013-01-16 14:27:00,
2013-01-16 09:32:00,24.3,21.7,30.04,SSW,203,5.0,10.0,90,0.00,,,0.00,WUHU216DAVISVP2,2013-01-16 14:32:00,
2013-01-16 09:37:00,24.5,21.9,30.04,South,191,7.0,10.0,90,0.00,,,0.00,WUHU216DAVISVP2,2013-01-16 14:37:00,
2013-01-16 09:42:00,24.7,21.9,30.04,SSW,200,7.0,10.0,89,0.00,,,0.00,WUHU216DAVISVP2,2013-01-16 14:42:00,
2013-01-16 09:47:00,25.1,22.3,30.05,SSW,194,6.0,10.0,89,0.00,,,0.00,WUHU216DAVISVP2,2013-01-16 14:47:00,
2013-01-16 09:52:00,25.3,22.2,30.05,SSW,205,7.0,13.0,88,0.00,,,0.00,WUHU216DAVISVP2,2013-01-16 14:52:00,
2013-01-16 09:57:00,25.5,22.7,30.05,SSW,206,9.0,13.0,89,0.00,,,0.00,WUHU216DAVISVP2,2013-01-16 14:57:00,
2013-01-16 10:02:00,25.7,22.6,30.05,SSW,210,4.0,14.0,88,0.00,,,0.00,WUHU216DAVISVP2,2013-01-16 15:02:00,
2013-01-16 10:07:00,25.9,22.6,30.05,SSW,198,7.0,15.0,87,0.00,,,0.00,WUHU216DAVISVP2,2013-01-16 15:07:00,
2013-01-16 10:12:00,26.2,22.8,30.05,SW,234,6.0,15.0,87,0.00,,,0.00,WUHU216DAVISVP2,2013-01-16 15:12:00,
2013-01-16 10:18:00,26.6,23.2,30.05,SSW,209,7.0,14.0,87,0.00,,,0.00,WUHU216DAVISVP2,2013-01-16 15:18:00,
2013-01-16 10:23:00,27.0,23.6,30.04,SSW,195,14.0,15.0,87,0.00,,,0.00,WUHU216DAVISVP2,2013-01-16 15:23:00,
2013-01-16 10:28:00,27.2,23.5,30.04,SSW,199,11.0,17.0,86,0.00,,,0.00,WUHU216DAVISVP2,2013-01-16 15:28:00,
2013-01-16 10:33:00,27.2,23.3,30.03,SSW,202,10.0,17.0,85,0.00,,,0.00,WUHU216DAVISVP2,2013-01-16 15:33:00,
2013-01-16 10:38:00,27.4,23.2,30.03,SSW,196,8.0,18.0,84,0.00,,,0.00,WUHU216DAVISVP2,2013-01-16 15:38:00,
2013-01-16 10:43:00,27.5,23.0,30.02,SSW,198,5.0,18.0,83,0.00,,,0.00,WUHU216DAVISVP2,2013-01-16 15:43:00,
2013-01-16 10:48:00,27.8,23.3,30.03,SSW,202,11.0,18.0,83,0.00,,,0.00,WUHU216DAVISVP2,2013-01-16 15:48:00,
2013-01-16 10:53:00,28.1,23.6,30.02,SW,219,10.0,18.0,83,0.00,,,0.00,WUHU216DAVISVP2,2013-01-16 15:53:00,
2013-01-16 10:58:00,28.4,23.9,30.03,SSW,213,8.0,17.0,83,0.00,,,0.00,WUHU216DAVISVP2,2013-01-16 15:58:00,
2013-01-16 11:03:00,28.3,22.9,30.03,SW,225,15.0,19.0,80,0.00,,,0.00,WUHU216DAVISVP2,2013-01-16 16:03:00,
2013-01-16 11:08:00,28.6,23.8,30.03,SSW,200,6.0,19.0,82,0.00,,,0.00,WUHU216DAVISVP2,2013-01-16 16:08:00,
2013-01-16 11:13:00,28.8,23.7,30.03,SSW,198,11.0,19.0,81,0.00,,,0.00,WUHU216DAVISVP2,2013-01-16 16:13:00,
2013-01-16 11:18:00,28.7,23.0,30.02,SSW,204,11.0,19.0,79,0.00,,,0.00,WUHU216DAVISVP2,2013-01-16 16:18:00,
2013-01-16 11:23:00,28.8,22.8,30.02,SW,228,7.0,18.0,78,0.00,,,0.00,WUHU216DAVISVP2,2013-01-16 16:23:00,
2013-01-16 11:28:00,29.1,23.1,30.01,SW,236,7.0,18.0,78,0.00,,,0.00,WUHU216DAVISVP2,2013-01-16 16:28:00,
2013-01-16 11:33:00,29.6,23.3,30.01,WSW,237,12.0,17.0,77,0.00,,,0.00,WUHU216DAVISVP2,2013-01-16 16:33:00,
2013-01-16 11:38:00,29.8,23.2,30.01,SW,235,9.0,17.0,76,0.00,,,0.00,WUHU216DAVISVP2,2013-01-16 16:38:00,
2013-01-16 11:44:00,30.0,23.1,30.01,SW,228,8.0,16.0,75,0.00,,,0.00,WUHU216DAVISVP2,2013-01-16 16:44:00,
2013-01-16 11:49:00,30.0,23.1,30.01,SW,216,11.0,17.0,75,0.00,,,0.00,WUHU216DAVISVP2,2013-01-16 16:49:00,
2013-01-16 11:54:00,30.2,23.9,30.01,SSW,194,10.0,17.0,77,0.00,,,0.00,WUHU216DAVISVP2,2013-01-16 16:54:00,
2013-01-16 11:59:00,30.0,23.4,30.00,SW,234,11.0,18.0,76,0.00,,,0.00,WUHU216DAVISVP2,2013-01-16 16:59:00,
2013-01-16 12:04:00,30.6,23.6,30.00,SSW,211,2.0,18.0,75,0.00,,,0.00,WUHU216DAVISVP2,2013-01-16 17:04:00,
2013-01-16 12:09:00,30.6,23.7,29.99,SSW,205,7.0,18.0,75,0.00,,,0.00,WUHU216DAVISVP2,2013-01-16 17:09:00,
2013-01-16 12:14:00,30.7,22.5,29.99,SSW,199,8.0,18.0,71,0.00,,,0.00,WUHU216DAVISVP2,2013-01-16 17:14:00,
2013-01-16 12:19:00,31.0,22.4,29.99,SW,215,11.0,18.0,70,0.00,,,0.00,WUHU216DAVISVP2,2013-01-16 17:19:00,
2013-01-16 12:24:00,31.2,22.9,29.98,SSW,198,13.0,17.0,71,0.00,,,0.00,WUHU216DAVISVP2,2013-01-16 17:24:00,
2013-01-16 12:29:00,31.2,22.6,29.98,WSW,243,8.0,17.0,70,0.00,,,0.00,WUHU216DAVISVP2,2013-01-16 17:29:00,
2013-01-16 12:34:00,31.5,22.6,29.97,SSW,209,8.0,17.0,69,0.00,,,0.00,WUHU216DAVISVP2,2013-01-16 17:34:00,
2013-01-16 12:39:00,31.3,22.0,29.97,South,180,11.0,17.0,68,0.00,,,0.00,WUHU216DAVISVP2,2013-01-16 17:39:00,
2013-01-16 12:44:00,31.7,23.1,29.96,SSW,199,4.0,17.0,70,0.00,,,0.00,WUHU216DAVISVP2,2013-01-16 17:44:00,
2013-01-16 12:49:00,31.8,21.8,29.96,SSW,195,11.0,17.0,66,0.00,,,0.00,WUHU216DAVISVP2,2013-01-16 17:49:00,
2013-01-16 12:54:00,32.2,23.2,29.96,SSW,212,6.0,17.0,69,0.00,,,0.00,WUHU216DAVISVP2,2013-01-16 17:54:00,
2013-01-16 13:00:00,32.3,23.0,29.95,SSW,202,6.0,17.0,68,0.00,,,0.00,WUHU216DAVISVP2,2013-01-16 18:00:00,
2013-01-16 13:05:00,32.6,22.5,29.95,South,173,7.0,17.0,66,0.00,,,0.00,WUHU216DAVISVP2,2013-01-16 18:05:00,
2013-01-16 13:10:00,33.0,21.8,29.95,SSW,198,5.0,16.0,63,0.00,,,0.00,WUHU216DAVISVP2,2013-01-16 18:10:00,
2013-01-16 13:15:00,33.1,22.3,29.94,SSW,203,7.0,16.0,64,0.00,,,0.00,WUHU216DAVISVP2,2013-01-16 18:15:00,
2013-01-16 13:20:00,33.0,22.6,29.95,South,176,8.0,19.0,65,0.00,,,0.00,WUHU216DAVISVP2,2013-01-16 18:20:00,
2013-01-16 13:25:00,33.2,22.4,29.95,SSW,201,7.0,19.0,64,0.00,,,0.00,WUHU216DAVISVP2,2013-01-16 18:25:00,
2013-01-16 13:30:00,33.4,22.2,29.94,SSW,205,14.0,19.0,63,0.00,,,0.00,WUHU216DAVISVP2,2013-01-16 18:30:00,
2013-01-16 13:35:00,33.5,20.3,29.94,South,182,10.0,22.0,58,0.00,,,0.00,WUHU216DAVISVP2,2013-01-16 18:35:00,
2013-01-16 13:40:00,33.9,22.3,29.94,SSW,205,10.0,22.0,62,0.00,,,0.00,WUHU216DAVISVP2,2013-01-16 18:40:00,
2013-01-16 13:45:00,34.2,22.6,29.94,SW,229,8.0,22.0,62,0.00,,,0.00,WUHU216DAVISVP2,2013-01-16 18:45:00,
2013-01-16 13:50:00,34.6,23.0,29.94,SSE,159,8.0,17.0,62,0.00,,,0.00,WUHU216DAVISVP2,2013-01-16 18:50:00,
2013-01-16 13:55:00,34.2,21.8,29.93,ESE,117,5.0,19.0,60,0.00,,,0.00,WUHU216DAVISVP2,2013-01-16 18:55:00,
2013-01-16 14:01:00,34.7,21.9,29.93,South,178,11.0,19.0,59,0.00,,,0.00,WUHU216DAVISVP2,2013-01-16 19:01:00,
2013-01-16 14:06:00,34.8,21.1,29.93,South,180,12.0,19.0,57,0.00,,,0.00,WUHU216DAVISVP2,2013-01-16 19:06:00,
2013-01-16 14:11:00,34.7,21.0,29.93,SSW,193,15.0,19.0,57,0.00,,,0.00,WUHU216DAVISVP2,2013-01-16 19:11:00,
2013-01-16 14:16:00,34.8,21.6,29.93,South,191,10.0,19.0,58,0.00,,,0.00,WUHU216DAVISVP2,2013-01-16 19:16:00,
2013-01-16 14:21:00,35.0,21.3,29.93,South,178,12.0,21.0,57,0.00,,,0.00,WUHU216DAVISVP2,2013-01-16 19:21:00,
2013-01-16 14:26:00,35.0,21.3,29.92,SSW,195,13.0,21.0,57,0.00,,,0.00,WUHU216DAVISVP2,2013-01-16 19:26:00,
2013-01-16 14:31:00,35.4,21.7,29.93,SSW,213,7.0,21.0,57,0.00,,,0.00,WUHU216DAVISVP2,2013-01-16 19:31:00,
2013-01-16 14:36:00,35.5,21.4,29.93,SSW,206,11.0,21.0,56,0.00,,,0.00,WUHU216DAVISVP2,2013-01-16 19:36:00,
2013-01-16 14:41:00,35.7,21.6,29.93,SSW,195,20.0,21.0,56,0.00,,,0.00,WUHU216DAVISVP2,2013-01-16 19:41:00,
2013-01-16 14:46:00,35.5,20.9,29.93,SSW,192,14.0,21.0,55,0.00,,,0.00,WUHU216DAVISVP2,2013-01-16 19:46:00,
2013-01-16 14:51:00,35.6,21.4,29.93,South,188,8.0,22.0,56,0.00,,,0.00,WUHU216DAVISVP2,2013-01-16 19:51:00,
2013-01-16 14:56:00,35.5,21.3,29.93,SSW,199,8.0,22.0,56,0.00,,,0.00,WUHU216DAVISVP2,2013-01-16 19:56:00,
2013-01-16 15:01:00,35.6,21.4,29.93,SSW,202,8.0,22.0,56,0.00,,,0.00,WUHU216DAVISVP2,2013-01-16 20:01:00,
2013-01-16 15:06:00,35.7,21.6,29.93,SSW,200,12.0,21.0,56,0.00,,,0.00,WUHU216DAVISVP2,2013-01-16 20:06:00,
2013-01-16 15:11:00,35.8,22.5,29.93,SSW,197,6.0,23.0,58,0.00,,,0.00,WUHU216DAVISVP2,2013-01-16 20:11:00,
2013-01-16 15:16:00,36.0,22.7,29.93,SSW,192,11.0,23.0,58,0.00,,,0.00,WUHU216DAVISVP2,2013-01-16 20:16:00,
2013-01-16 15:21:00,36.1,22.4,29.93,SW,222,8.0,23.0,57,0.00,,,0.00,WUHU216DAVISVP2,2013-01-16 20:21:00,
2013-01-16 15:26:00,36.1,22.8,29.93,SSW,200,4.0,22.0,58,0.00,,,0.00,WUHU216DAVISVP2,2013-01-16 20:26:00,
2013-01-16 15:31:00,36.0,22.3,29.93,SSW,196,15.0,19.0,57,0.00,,,0.00,WUHU216DAVISVP2,2013-01-16 20:31:00,
2013-01-16 15:37:00,36.0,22.3,29.94,South,188,6.0,20.0,57,0.00,,,0.00,WUHU216DAVISVP2,2013-01-16 20:37:00,
2013-01-16 15:42:00,35.8,21.6,29.94,SSW,203,10.0,20.0,56,0.00,,,0.00,WUHU216DAVISVP2,2013-01-16 20:42:00,
2013-01-16 15:47:00,35.7,21.5,29.93,SSW,198,17.0,20.0,56,0.00,,,0.00,WUHU216DAVISVP2,2013-01-16 20:47:00,
2013-01-16 15:52:00,35.7,21.1,29.93,SSW,199,16.0,20.0,55,0.00,,,0.00,WUHU216DAVISVP2,2013-01-16 20:52:00,
2013-01-16 15:57:00,35.6,21.4,29.92,SSW,194,8.0,22.0,56,0.00,,,0.00,WUHU216DAVISVP2,2013-01-16 20:57:00,
2013-01-16 16:02:00,35.7,21.1,29.93,SSW,196,7.0,22.0,55,0.00,,,0.00,WUHU216DAVISVP2,2013-01-16 21:02:00,
2013-01-16 16:07:00,35.7,21.1,29.93,SSW,192,7.0,22.0,55,0.00,,,0.00,WUHU216DAVISVP2,2013-01-16 21:07:00,
2013-01-16 16:12:00,35.7,21.1,29.93,SSW,193,10.0,22.0,55,0.00,,,0.00,WUHU216DAVISVP2,2013-01-16 21:12:00,
2013-01-16 16:17:00,35.6,21.0,29.93,South,190,11.0,22.0,55,0.00,,,0.00,WUHU216DAVISVP2,2013-01-16 21:17:00,
2013-01-16 16:22:00,35.4,20.4,29.93,SSW,209,12.0,22.0,54,0.00,,,0.00,WUHU216DAVISVP2,2013-01-16 21:22:00,
2013-01-16 16:27:00,35.5,20.9,29.93,South,188,11.0,20.0,55,0.00,,,0.00,WUHU216DAVISVP2,2013-01-16 21:27:00,
2013-01-16 16:32:00,35.4,21.3,29.94,SSW,199,11.0,19.0,56,0.00,,,0.00,WUHU216DAVISVP2,2013-01-16 21:32:00,
2013-01-16 16:37:00,35.3,21.6,29.93,South,186,8.0,19.0,57,0.00,,,0.00,WUHU216DAVISVP2,2013-01-16 21:37:00,
2013-01-16 16:42:00,35.4,21.7,29.94,SSW,198,10.0,19.0,57,0.00,,,0.00,WUHU216DAVISVP2,2013-01-16 21:42:00,
2013-01-16 16:47:00,35.4,21.7,29.94,South,178,5.0,19.0,57,0.00,,,0.00,WUHU216DAVISVP2,2013-01-16 21:47:00,
2013-01-16 16:53:00,35.3,21.6,29.94,SSW,193,6.0,14.0,57,0.00,,,0.00,WUHU216DAVISVP2,2013-01-16 21:53:00,
2013-01-16 16:58:00,35.2,21.5,29.94,South,187,12.0,17.0,57,0.00,,,0.00,WUHU216DAVISVP2,2013-01-16 21:58:00,
2013-01-16 17:03:00,35.1,21.4,29.94,SSW,202,8.0,17.0,57,0.00,,,0.00,WUHU216DAVISVP2,2013-01-16 22:03:00,
2013-01-16 17:08:00,34.9,21.2,29.95,SSW,192,9.0,17.0,57,0.00,,,0.00,WUHU216DAVISVP2,2013-01-16 22:08:00,
2013-01-16 17:13:00,34.8,21.6,29.96,SSW,205,8.0,18.0,58,0.00,,,0.00,WUHU216DAVISVP2,2013-01-16 22:13:00,
2013-01-16 17:18:00,34.7,21.9,29.95,SW,216,3.0,18.0,59,0.00,,,0.00,WUHU216DAVISVP2,2013-01-16 22:18:00,
2013-01-16 17:23:00,34.5,21.3,29.96,South,179,7.0,19.0,58,0.00,,,0.00,WUHU216DAVISVP2,2013-01-16 22:23:00,
2013-01-16 17:28:00,34.2,22.2,29.96,SSW,200,8.0,19.0,61,0.00,,,0.00,WUHU216DAVISVP2,2013-01-16 22:28:00,
2013-01-16 17:33:00,34.0,22.4,29.97,South,177,3.0,19.0,62,0.00,,,0.00,WUHU216DAVISVP2,2013-01-16 22:33:00,
2013-01-16 17:38:00,33.9,22.6,29.96,SSE,167,10.0,19.0,63,0.00,,,0.00,WUHU216DAVISVP2,2013-01-16 22:38:00,
2013-01-16 17:43:00,33.9,23.0,29.96,South,179,4.0,13.0,64,0.00,,,0.00,WUHU216DAVISVP2,2013-01-16 22:43:00,
2013-01-16 17:48:00,33.7,22.9,29.96,SSW,195,7.0,13.0,64,0.00,,,0.00,WUHU216DAVISVP2,2013-01-16 22:48:00,
2013-01-16 17:53:00,33.6,22.8,29.96,SSE,162,9.0,13.0,64,0.00,,,0.00,WUHU216DAVISVP2,2013-01-16 22:53:00,
2013-01-16 17:58:00,33.5,23.1,29.96,SSE,155,5.0,11.0,65,0.00,,,0.00,WUHU216DAVISVP2,2013-01-16 22:58:00,
2013-01-16 18:03:00,33.5,22.7,29.96,South,178,11.0,14.0,64,0.00,,,0.00,WUHU216DAVISVP2,2013-01-16 23:03:00,
2013-01-16 18:08:00,33.4,22.6,29.96,SSW,194,7.0,14.0,64,0.00,,,0.00,WUHU216DAVISVP2,2013-01-16 23:08:00,
2013-01-16 18:13:00,33.4,23.0,29.97,South,188,8.0,14.0,65,0.00,,,0.00,WUHU216DAVISVP2,2013-01-16 23:13:00,
2013-01-16 18:19:00,33.4,23.3,29.96,SSW,201,8.0,14.0,66,0.00,,,0.00,WUHU216DAVISVP2,2013-01-16 23:19:00,
2013-01-16 18:24:00,33.3,22.9,29.97,SSW,192,12.0,20.0,65,0.00,,,0.00,WUHU216DAVISVP2,2013-01-16 23:24:00,
2013-01-16 18:29:00,33.3,23.2,29.96,South,189,9.0,20.0,66,0.00,,,0.00,WUHU216DAVISVP2,2013-01-16 23:29:00,
2013-01-16 18:34:00,33.3,22.9,29.97,SSE,166,8.0,19.0,65,0.00,,,0.00,WUHU216DAVISVP2,2013-01-16 23:34:00,
2013-01-16 18:39:00,33.2,22.8,29.96,South,189,13.0,19.0,65,0.00,,,0.00,WUHU216DAVISVP2,2013-01-16 23:39:00,
2013-01-16 18:44:00,33.2,23.1,29.96,South,177,12.0,17.0,66,0.00,,,0.00,WUHU216DAVISVP2,2013-01-16 23:44:00,
2013-01-16 18:49:00,33.2,23.1,29.97,South,189,7.0,24.0,66,0.00,,,0.00,WUHU216DAVISVP2,2013-01-16 23:49:00,
2013-01-16 18:54:00,33.2,23.1,29.97,South,191,15.0,24.0,66,0.00,,,0.00,WUHU216DAVISVP2,2013-01-16 23:54:00,
2013-01-16 18:59:00,33.2,23.1,29.97,SSW,203,10.0,24.0,66,0.00,,,0.00,WUHU216DAVISVP2,2013-01-16 23:59:00,
2013-01-16 19:04:00,33.2,23.1,29.97,SSW,209,9.0,24.0,66,0.00,,,0.00,WUHU216DAVISVP2,2013-01-17 00:04:00,
2013-01-16 19:09:00,33.2,23.5,29.97,SSW,193,9.0,20.0,67,0.00,,,0.00,WUHU216DAVISVP2,2013-01-17 00:09:00,
2013-01-16 19:14:00,33.1,23.8,29.98,South,175,10.0,20.0,68,0.00,,,0.00,WUHU216DAVISVP2,2013-01-17 00:14:00,
2013-01-16 19:19:00,33.0,23.7,29.98,South,188,9.0,20.0,68,0.00,,,0.00,WUHU216DAVISVP2,2013-01-17 00:19:00,
2013-01-16 19:25:00,33.0,23.7,29.98,South,183,7.0,17.0,68,0.00,,,0.00,WUHU216DAVISVP2,2013-01-17 00:25:00,
2013-01-16 19:30:00,33.0,23.7,29.98,South,188,16.0,17.0,68,0.00,,,0.00,WUHU216DAVISVP2,2013-01-17 00:30:00,
2013-01-16 19:35:00,33.0,23.7,29.98,SSW,193,7.0,18.0,68,0.00,,,0.00,WUHU216DAVISVP2,2013-01-17 00:35:00,
2013-01-16 19:40:00,33.1,23.8,29.98,SSW,208,15.0,18.0,68,0.00,,,0.00,WUHU216DAVISVP2,2013-01-17 00:40:00,
2013-01-16 19:45:00,33.0,23.9,29.98,SSW,202,10.0,18.0,69,0.00,,,0.00,WUHU216DAVISVP2,2013-01-17 00:45:00,
2013-01-16 19:50:00,33.0,23.9,29.98,South,188,9.0,17.0,69,0.00,,,0.00,WUHU216DAVISVP2,2013-01-17 00:50:00,
2013-01-16 19:55:00,33.0,24.0,29.98,South,186,9.0,17.0,69,0.00,,,0.00,WUHU216DAVISVP2,2013-01-17 00:55:00,
2013-01-16 20:00:00,32.9,23.9,29.99,SSW,200,9.0,17.0,69,0.00,,,0.00,WUHU216DAVISVP2,2013-01-17 01:00:00,
2013-01-16 20:05:00,32.9,24.2,29.99,South,185,13.0,14.0,70,0.00,,,0.00,WUHU216DAVISVP2,2013-01-17 01:05:00,
2013-01-16 20:10:00,32.9,24.2,29.99,SW,219,13.0,17.0,70,0.00,,,0.00,WUHU216DAVISVP2,2013-01-17 01:10:00,
2013-01-16 20:15:00,32.9,24.2,29.99,SSW,202,12.0,17.0,70,0.00,,,0.00,WUHU216DAVISVP2,2013-01-17 01:15:00,
2013-01-16 20:20:00,32.9,24.6,30.00,South,188,9.0,17.0,71,0.00,,,0.00,WUHU216DAVISVP2,2013-01-17 01:20:00,
2013-01-16 20:25:00,32.9,24.6,30.00,SW,227,7.0,18.0,71,0.00,,,0.00,WUHU216DAVISVP2,2013-01-17 01:25:00,
2013-01-16 20:30:00,32.9,24.9,30.00,SSW,209,5.0,18.0,72,0.00,,,0.00,WUHU216DAVISVP2,2013-01-17 01:30:00,
2013-01-16 20:36:00,32.9,24.9,30.00,SW,222,10.0,18.0,72,0.00,,,0.00,WUHU216DAVISVP2,2013-01-17 01:36:00,
2013-01-16 20:41:00,32.9,24.9,30.01,South,186,11.0,18.0,72,0.00,,,0.00,WUHU216DAVISVP2,2013-01-17 01:41:00,
2013-01-16 20:46:00,33.0,25.0,30.01,SSW,196,7.0,17.0,72,0.00,,,0.00,WUHU216DAVISVP2,2013-01-17 01:46:00,
2013-01-16 20:51:00,33.1,25.1,30.01,South,182,16.0,18.0,72,0.00,,,0.00,WUHU216DAVISVP2,2013-01-17 01:51:00,
2013-01-16 20:56:00,33.0,25.7,30.01,SW,214,13.0,21.0,74,0.00,,,0.00,WUHU216DAVISVP2,2013-01-17 01:56:00,
2013-01-16 21:01:00,32.6,26.2,30.01,SW,223,17.0,22.0,77,0.00,,,0.00,WUHU216DAVISVP2,2013-01-17 02:01:00,
2013-01-16 21:06:00,32.4,26.3,30.01,SW,219,9.0,22.0,78,0.00,,,0.00,WUHU216DAVISVP2,2013-01-17 02:06:00,
2013-01-16 21:11:00,32.3,26.5,30.01,SSW,201,6.0,22.0,79,0.00,,,0.00,WUHU216DAVISVP2,2013-01-17 02:11:00,
2013-01-16 21:16:00,32.4,26.3,30.02,SSW,198,8.0,22.0,78,0.00,,,0.00,WUHU216DAVISVP2,2013-01-17 02:16:00,
2013-01-16 21:21:00,32.5,26.7,30.02,SW,217,11.0,20.0,79,0.00,,,0.00,WUHU216DAVISVP2,2013-01-17 02:21:00,
2013-01-16 21:26:00,32.5,26.7,30.02,SSW,210,8.0,21.0,79,0.00,,,0.00,WUHU216DAVISVP2,2013-01-17 02:26:00,
2013-01-16 21:31:00,32.5,27.0,30.03,SSW,204,13.0,21.0,80,0.00,,,0.00,WUHU216DAVISVP2,2013-01-17 02:31:00,
2013-01-16 21:36:00,32.4,26.9,30.03,SSW,202,8.0,23.0,80,0.00,,,0.00,WUHU216DAVISVP2,2013-01-17 02:36:00,
2013-01-16 21:41:00,32.4,26.9,30.03,SSW,198,7.0,23.0,80,0.00,,,0.00,WUHU216DAVISVP2,2013-01-17 02:41:00,
2013-01-16 21:46:00,32.4,27.2,30.03,South,185,11.0,23.0,81,0.00,,,0.00,WUHU216DAVISVP2,2013-01-17 02:46:00,
2013-01-16 21:51:00,32.5,27.3,30.04,South,188,17.0,19.0,81,0.00,,,0.00,WUHU216DAVISVP2,2013-01-17 02:51:00,
2013-01-16 21:57:00,32.5,27.3,30.03,SSW,202,7.0,19.0,81,0.00,,,0.00,WUHU216DAVISVP2,2013-01-17 02:57:00,
2013-01-16 22:02:00,32.5,27.3,30.03,SSW,196,7.0,21.0,81,0.00,,,0.00,WUHU216DAVISVP2,2013-01-17 03:02:00,
2013-01-16 22:07:00,32.5,27.3,30.03,SW,235,7.0,21.0,81,0.00,,,0.00,WUHU216DAVISVP2,2013-01-17 03:07:00,
2013-01-16 22:12:00,32.5,27.3,30.02,WSW,246,16.0,20.0,81,0.00,,,0.00,WUHU216DAVISVP2,2013-01-17 03:12:00,
2013-01-16 22:17:00,32.5,27.6,30.03,SSW,199,8.0,18.0,82,0.00,,,0.00,WUHU216DAVISVP2,2013-01-17 03:17:00,
2013-01-16 22:22:00,32.5,27.6,30.02,SW,217,11.0,17.0,82,0.00,,,0.00,WUHU216DAVISVP2,2013-01-17 03:22:00,
2013-01-16 22:27:00,32.5,27.6,30.02,SSW,193,7.0,17.0,82,0.00,,,0.00,WUHU216DAVISVP2,2013-01-17 03:27:00,
2013-01-16 22:32:00,32.5,27.6,30.03,SSW,192,9.0,18.0,82,0.00,,,0.00,WUHU216DAVISVP2,2013-01-17 03:32:00,
2013-01-16 22:37:00,32.5,27.6,30.02,SSW,194,11.0,18.0,82,0.00,,,0.00,WUHU216DAVISVP2,2013-01-17 03:37:00,
2013-01-16 22:42:00,32.6,27.7,30.02,SSW,202,8.0,18.0,82,0.00,,,0.00,WUHU216DAVISVP2,2013-01-17 03:42:00,
2013-01-16 22:47:00,32.7,27.8,30.03,SSW,207,12.0,18.0,82,0.00,,,0.00,WUHU216DAVISVP2,2013-01-17 03:47:00,
2013-01-16 22:52:00,32.7,27.8,30.03,SW,225,7.0,17.0,82,0.00,,,0.00,WUHU216DAVISVP2,2013-01-17 03:52:00,
2013-01-16 22:57:00,32.7,27.8,30.03,SW,215,7.0,17.0,82,0.00,,,0.00,WUHU216DAVISVP2,2013-01-17 03:57:00,
2013-01-16 23:02:00,32.8,27.9,30.02,SW,220,11.0,20.0,82,0.00,,,0.00,WUHU216DAVISVP2,2013-01-17 04:02:00,
2013-01-16 23:08:00,32.8,27.9,30.02,SW,234,11.0,20.0,82,0.00,,,0.00,WUHU216DAVISVP2,2013-01-17 04:08:00,
2013-01-16 23:13:00,32.9,28.0,30.02,SSW,213,11.0,20.0,82,0.00,,,0.00,WUHU216DAVISVP2,2013-01-17 04:13:00,
2013-01-16 23:18:00,32.9,28.0,30.02,SSW,209,8.0,19.0,82,0.00,,,0.00,WUHU216DAVISVP2,2013-01-17 04:18:00,
2013-01-16 23:23:00,32.9,28.0,30.02,SSW,205,7.0,19.0,82,0.00,,,0.00,WUHU216DAVISVP2,2013-01-17 04:23:00,
2013-01-16 23:28:00,33.0,27.8,30.03,SSW,197,9.0,19.0,81,0.00,,,0.00,WUHU216DAVISVP2,2013-01-17 04:28:00,
2013-01-16 23:33:00,33.0,27.8,30.03,SSW,199,9.0,18.0,81,0.00,,,0.00,WUHU216DAVISVP2,2013-01-17 04:33:00,
2013-01-16 23:38:00,33.0,28.1,30.03,SSW,209,7.0,18.0,82,0.00,,,0.00,WUHU216DAVISVP2,2013-01-17 04:38:00,
2013-01-16 23:43:00,33.0,28.1,30.04,SSW,208,10.0,18.0,82,0.00,,,0.00,WUHU216DAVISVP2,2013-01-17 04:43:00,
2013-01-16 23:48:00,33.1,27.9,30.04,SW,232,15.0,17.0,81,0.00,,,0.00,WUHU216DAVISVP2,2013-01-17 04:48:00,
2013-01-16 23:53:00,33.2,28.0,30.05,SSW,209,7.0,17.0,81,0.00,,,0.00,WUHU216DAVISVP2,2013-01-17 04:53:00,
2013-01-16 23:58:00,33.2,28.0,30.04,SSW,211,10.0,17.0,81,0.00,,,0.00,WUHU216DAVISVP2,2013-01-17 04:58:00,